createdAt,value
2022-08-03T00:01:53.066Z,40.87
2022-08-03T00:04:33.990Z,40.93
2022-08-03T00:07:03.348Z,41.01
2022-08-03T00:09:35.847Z,40.24
2022-08-03T00:12:05.184Z,40.35
2022-08-03T00:14:42.281Z,40.27
2022-08-03T00:17:12.371Z,33.58
2022-08-03T00:19:49.270Z,35.53
2022-08-03T00:22:18.182Z,38.57
2022-08-03T00:24:49.026Z,39.87
2022-08-03T00:27:17.524Z,39.39
2022-08-03T00:30:00.176Z,39.50
2022-08-03T00:32:30.211Z,39.49
2022-08-03T00:35:16.359Z,38.83
2022-08-03T00:37:54.256Z,39.35
2022-08-03T00:40:23.085Z,39.91
2022-08-03T00:42:58.302Z,40.28
2022-08-03T00:45:28.562Z,39.99
2022-08-03T00:47:59.499Z,39.45
2022-08-03T00:50:38.580Z,39.84
2022-08-03T00:53:12.104Z,40.43
2022-08-03T00:55:41.684Z,40.97
2022-08-03T00:58:13.087Z,40.97
2022-08-03T01:00:42.027Z,41.24
2022-08-03T01:03:14.637Z,41.43
2022-08-03T01:06:13.397Z,40.65
2022-08-03T01:08:49.078Z,40.62
2022-08-03T01:11:27.133Z,38.77
2022-08-03T01:14:18.397Z,38.33
2022-08-03T01:16:57.057Z,37.07
2022-08-03T01:19:42.320Z,37.83
2022-08-03T01:22:38.349Z,39.28
2022-08-03T01:25:15.414Z,38.87
2022-08-03T01:27:58.884Z,38.50
2022-08-03T01:30:36.504Z,38.42
2022-08-03T01:33:08.125Z,40.12
2022-08-03T01:35:48.386Z,40.02
2022-08-03T01:38:25.644Z,39.45
2022-08-03T01:41:00.428Z,39.20
2022-08-03T01:44:28.687Z,39.09
2022-08-03T01:46:29.383Z,39.31
2022-08-03T01:49:09.399Z,39.11
2022-08-03T01:52:03.476Z,39.18
2022-08-03T01:54:37.248Z,39.70
2022-08-03T01:57:09.887Z,39.14
2022-08-03T02:02:34.606Z,39.55
2022-08-03T02:05:11.783Z,40.81
2022-08-03T02:07:43.127Z,42.05
2022-08-03T02:10:17.117Z,42.29
2022-08-03T02:13:10.706Z,41.24
2022-08-03T02:15:42.391Z,41.02
2022-08-03T02:18:19.033Z,42.05
2022-08-03T02:20:49.704Z,42.06
2022-08-03T02:23:19.856Z,42.08
2022-08-03T02:25:57.211Z,41.31
2022-08-03T02:28:40.360Z,41.81
2022-08-03T02:31:14.904Z,42.45
2022-08-03T02:33:55.144Z,36.93
2022-08-03T02:40:43.339Z,43.12
2022-08-03T02:43:12.859Z,42.77
2022-08-03T02:45:48.929Z,43.55
2022-08-03T02:48:25.598Z,43.45
2022-08-03T02:51:04.606Z,42.79
2022-08-03T02:53:35.827Z,42.31
2022-08-03T02:56:07.557Z,42.01
2022-08-03T02:58:39.029Z,42.34
2022-08-03T03:01:09.625Z,42.39
2022-08-03T03:03:44.682Z,41.57
2022-08-03T03:06:20.316Z,41.26
2022-08-03T03:08:57.894Z,41.04
2022-08-03T03:11:31.261Z,42.35
2022-08-03T03:14:01.053Z,41.71
2022-08-03T03:16:33.497Z,42.70
2022-08-03T03:19:03.882Z,40.80
2022-08-03T03:21:39.080Z,38.13
2022-08-03T03:24:10.371Z,39.84
2022-08-03T03:26:42.501Z,40.95
2022-08-03T03:29:10.962Z,41.88
2022-08-03T03:31:39.973Z,41.66
2022-08-03T03:34:08.446Z,41.86
2022-08-03T03:36:39.104Z,41.96
2022-08-03T03:39:15.676Z,40.99
2022-08-03T03:41:44.961Z,41.28
2022-08-03T03:44:14.558Z,40.42
2022-08-03T03:46:43.461Z,42.05
2022-08-03T03:49:12.264Z,40.28
2022-08-03T03:51:42.759Z,42.30
2022-08-03T03:54:12.683Z,42.33
2022-08-03T03:56:41.655Z,42.13
2022-08-03T03:59:10.795Z,42.91
2022-08-03T04:01:41.766Z,42.33
2022-08-03T04:04:35.523Z,42.46
2022-08-03T04:07:24.791Z,41.55
2022-08-03T04:10:14.493Z,40.82
2022-08-03T04:12:50.484Z,40.90
2022-08-03T04:15:23.885Z,40.01
2022-08-03T04:17:55.695Z,40.64
2022-08-03T04:20:29.757Z,41.11
2022-08-03T04:23:02.288Z,41.55
2022-08-03T04:25:36.293Z,40.07
2022-08-03T04:28:30.854Z,41.09
2022-08-03T04:30:58.534Z,41.36
2022-08-03T04:33:29.697Z,41.14
2022-08-03T04:36:04.382Z,41.85
2022-08-03T04:38:40.012Z,42.01
2022-08-03T04:41:11.179Z,41.65
2022-08-03T04:43:42.972Z,42.07
2022-08-03T04:46:14.742Z,41.62
2022-08-03T04:48:44.904Z,42.11
2022-08-03T04:51:16.752Z,42.15
2022-08-03T04:53:47.220Z,43.36
2022-08-03T04:56:16.128Z,43.28
2022-08-03T04:58:44.712Z,43.46
2022-08-03T05:01:12.924Z,43.39
2022-08-03T05:03:42.526Z,43.47
2022-08-03T05:06:11.795Z,43.45
2022-08-03T05:08:45.908Z,43.79
2022-08-03T05:11:21.003Z,44.39
2022-08-03T05:13:50.802Z,44.53
2022-08-03T05:16:20.092Z,44.94
2022-08-03T05:18:49.795Z,44.43
2022-08-03T05:21:19.796Z,44.71
2022-08-03T05:23:49.706Z,43.83
2022-08-03T05:26:20.248Z,43.76
2022-08-03T05:28:51.332Z,43.62
2022-08-03T05:31:21.611Z,43.26
2022-08-03T05:33:50.512Z,43.35
2022-08-03T05:36:18.776Z,42.75
2022-08-03T05:38:47.552Z,42.85
2022-08-03T05:41:21.289Z,43.11
2022-08-03T05:43:56.444Z,40.39
2022-08-03T05:46:25.845Z,41.29
2022-08-03T05:48:58.220Z,38.81
2022-08-03T05:51:26.644Z,39.25
2022-08-03T05:53:54.771Z,38.30
2022-08-03T05:56:27.002Z,37.78
2022-08-03T05:59:16.302Z,39.60
2022-08-03T06:01:49.853Z,38.98
2022-08-03T06:04:18.518Z,38.58
2022-08-03T06:06:46.732Z,36.12
2022-08-03T06:09:18.559Z,36.32
2022-08-03T06:11:50.378Z,36.50
2022-08-03T06:14:26.344Z,36.33
2022-08-03T06:16:54.763Z,35.00
2022-08-03T06:19:26.005Z,33.60
2022-08-03T06:21:54.371Z,33.87
2022-08-03T06:24:25.039Z,32.56
2022-08-03T06:26:59.014Z,32.48
2022-08-03T06:32:17.470Z,33.26
2022-08-03T06:37:30.536Z,32.99
2022-08-03T06:39:59.731Z,33.42
2022-08-03T06:42:36.413Z,33.98
2022-08-03T06:45:19.401Z,34.75
2022-08-03T06:47:48.121Z,34.98
2022-08-03T06:50:25.998Z,35.50
2022-08-03T06:53:06.427Z,34.44
2022-08-03T06:55:42.272Z,35.86
2022-08-03T06:58:22.161Z,35.43
2022-08-03T07:00:54.534Z,35.66
2022-08-03T07:03:25.059Z,36.08
2022-08-03T07:05:53.719Z,35.53
2022-08-03T07:08:33.623Z,35.50
2022-08-03T07:11:03.063Z,31.72
2022-08-03T07:13:34.918Z,35.16
2022-08-03T07:16:06.461Z,36.04
2022-08-03T07:18:35.094Z,36.16
2022-08-03T07:21:03.977Z,35.41
2022-08-03T07:23:35.037Z,35.83
2022-08-03T07:26:04.228Z,35.99
2022-08-03T07:28:36.530Z,35.84
2022-08-03T07:31:12.769Z,35.57
2022-08-03T07:39:31.529Z,34.82
2022-08-03T07:42:09.763Z,34.32
2022-08-03T07:44:50.893Z,34.50
2022-08-03T07:47:38.575Z,33.45
2022-08-03T07:50:10.306Z,33.97
2022-08-03T08:02:22.316Z,31.22
2022-08-03T08:11:09.683Z,32.50
2022-08-03T08:20:31.745Z,30.02
2022-08-03T08:23:03.510Z,30.23
2022-08-03T08:25:43.737Z,27.48
2022-08-03T08:28:32.650Z,25.98
2022-08-03T08:31:12.504Z,25.49
2022-08-03T08:40:25.481Z,24.90
2022-08-03T08:46:01.062Z,23.65
2022-08-03T08:52:01.151Z,25.53
2022-08-03T08:54:38.234Z,24.22
2022-08-03T08:57:40.513Z,25.71
2022-08-03T09:00:16.489Z,27.08
2022-08-03T09:02:47.637Z,23.65
2022-08-03T09:05:36.238Z,25.68
2022-08-03T09:08:15.191Z,26.16
2022-08-03T09:16:56.487Z,22.63
2022-08-03T09:23:14.027Z,24.08
2022-08-03T09:33:02.193Z,21.58
2022-08-03T09:38:28.243Z,21.63
2022-08-03T09:41:00.266Z,21.90
2022-08-03T09:43:59.622Z,22.26
2022-08-03T09:46:57.337Z,24.26
2022-08-03T09:49:33.210Z,23.48
2022-08-03T09:52:33.646Z,24.09
2022-08-03T09:56:34.313Z,20.93
2022-08-03T09:58:54.005Z,21.56
2022-08-03T10:01:34.530Z,23.03
2022-08-03T10:13:48.120Z,21.98
2022-08-03T10:32:40.407Z,22.03
2022-08-03T10:35:21.569Z,22.58
2022-08-03T10:44:55.963Z,22.74
2022-08-03T10:48:56.347Z,22.53
2022-08-03T10:55:03.546Z,22.65
2022-08-03T10:57:58.921Z,21.48
2022-08-03T11:00:53.639Z,21.96
2022-08-03T11:03:23.977Z,21.90
2022-08-03T11:05:55.182Z,22.33
2022-08-03T11:11:43.165Z,22.89
2022-08-03T11:14:22.893Z,20.86
2022-08-03T11:26:15.885Z,21.27
2022-08-03T11:31:56.840Z,20.29
2022-08-03T11:34:29.951Z,22.21
2022-08-03T11:40:42.421Z,21.29
2022-08-03T11:43:48.534Z,21.50
2022-08-03T11:46:41.776Z,21.14
2022-08-03T11:51:59.209Z,21.02
2022-08-03T11:59:00.903Z,22.43
2022-08-03T12:03:42.260Z,22.19
2022-08-03T12:06:20.142Z,21.07
2022-08-03T12:08:50.752Z,22.54
2022-08-03T12:11:20.887Z,22.94
2022-08-03T12:14:26.826Z,22.09
2022-08-03T12:16:52.147Z,21.83
2022-08-03T12:19:36.750Z,22.47
2022-08-03T12:25:02.737Z,21.98
2022-08-03T12:30:24.417Z,18.33
2022-08-03T12:32:58.806Z,18.86
2022-08-03T12:35:31.683Z,20.36
2022-08-03T12:38:06.021Z,22.66
2022-08-03T12:40:41.664Z,22.59
2022-08-03T12:49:03.619Z,21.20
2022-08-03T12:51:36.898Z,21.07
2022-08-03T12:54:09.588Z,21.54
2022-08-03T12:59:41.447Z,19.97
2022-08-03T13:02:26.294Z,20.31
2022-08-03T13:04:58.558Z,20.00
2022-08-03T13:07:31.852Z,19.71
2022-08-03T13:12:36.893Z,18.81
2022-08-03T13:15:07.349Z,18.03
2022-08-03T13:20:18.476Z,19.02
2022-08-03T13:22:52.876Z,18.30
2022-08-03T13:33:13.108Z,19.23
2022-08-03T13:38:30.017Z,19.78
2022-08-03T13:41:04.844Z,19.13
2022-08-03T13:43:34.197Z,19.60
2022-08-03T13:46:06.869Z,19.37
2022-08-03T13:48:40.489Z,18.91
2022-08-03T13:53:49.928Z,19.45
2022-08-03T13:56:20.083Z,19.51
2022-08-03T13:58:53.384Z,19.38
2022-08-03T14:01:53.471Z,19.35
2022-08-03T14:04:21.789Z,19.24
2022-08-03T14:06:51.234Z,19.01
2022-08-03T14:09:26.383Z,18.45
2022-08-03T14:12:08.379Z,18.65
2022-08-03T14:14:37.883Z,18.71
2022-08-03T14:17:06.290Z,18.88
2022-08-03T14:19:40.580Z,20.07
2022-08-03T14:22:26.129Z,20.01
2022-08-03T14:30:00.853Z,18.00
2022-08-03T14:32:29.695Z,18.22
2022-08-03T14:35:00.955Z,18.05
2022-08-03T14:37:34.044Z,18.94
2022-08-03T14:42:36.594Z,19.33
2022-08-03T14:45:09.291Z,19.57
2022-08-03T14:50:36.454Z,18.29
2022-08-03T14:52:58.811Z,19.15
2022-08-03T14:55:38.629Z,19.93
2022-08-03T14:58:22.426Z,20.08
2022-08-03T15:00:55.341Z,19.92
2022-08-03T15:03:25.624Z,20.16
2022-08-03T15:05:57.185Z,19.67
2022-08-03T15:08:28.026Z,18.11
2022-08-03T15:10:59.835Z,19.23
2022-08-03T15:13:29.637Z,20.57
2022-08-03T15:15:58.679Z,19.57
2022-08-03T15:18:29.908Z,19.41
2022-08-03T15:20:58.274Z,20.12
2022-08-03T15:26:30.757Z,17.69
2022-08-03T15:31:24.928Z,19.34
2022-08-03T15:33:53.875Z,18.57
2022-08-03T15:36:21.878Z,17.49
2022-08-03T15:38:50.503Z,16.94
2022-08-03T15:41:19.716Z,17.41
2022-08-03T15:43:48.426Z,17.94
2022-08-03T15:48:48.109Z,17.02
2022-08-03T15:51:19.927Z,17.70
2022-08-03T15:53:51.831Z,16.80
2022-08-03T15:56:20.417Z,17.43
2022-08-03T15:59:03.990Z,17.26
2022-08-03T16:01:42.576Z,17.58
2022-08-03T16:04:11.373Z,16.46
2022-08-03T16:06:39.405Z,16.92
2022-08-03T16:09:23.138Z,16.99
2022-08-03T16:12:03.134Z,16.88
2022-08-03T16:14:44.890Z,16.45
2022-08-03T16:19:49.971Z,17.05
2022-08-03T16:24:47.254Z,17.91
2022-08-03T16:27:56.773Z,17.64
2022-08-03T16:30:17.032Z,16.90
2022-08-03T16:35:25.065Z,17.75
2022-08-03T16:37:56.873Z,17.46
2022-08-03T16:43:18.931Z,16.86
2022-08-03T16:45:53.701Z,17.51
2022-08-03T16:48:26.852Z,17.35
2022-08-03T16:50:58.933Z,18.37
2022-08-03T16:54:05.787Z,17.88
2022-08-03T16:56:33.779Z,18.83
2022-08-03T16:59:09.368Z,19.29
2022-08-03T17:01:41.757Z,19.06
2022-08-03T17:04:17.197Z,19.46
2022-08-03T17:06:49.408Z,19.57
2022-08-03T17:11:52.109Z,18.55
2022-08-03T17:14:28.319Z,19.54
2022-08-03T17:17:01.878Z,20.23
2022-08-03T17:19:35.983Z,20.41
2022-08-03T17:22:07.720Z,20.68
2022-08-03T17:24:44.089Z,20.62
2022-08-03T17:28:50.362Z,21.07
2022-08-03T17:30:13.410Z,21.24
2022-08-03T17:32:57.119Z,21.18
2022-08-03T17:35:38.707Z,20.80
2022-08-03T17:38:13.804Z,21.65
2022-08-03T17:40:52.163Z,20.79
2022-08-03T17:44:14.169Z,21.42
2022-08-03T17:46:26.305Z,21.11
2022-08-03T17:48:59.417Z,21.65
2022-08-03T17:51:32.803Z,21.79
2022-08-03T17:54:18.143Z,22.37
2022-08-03T17:57:22.451Z,22.58
2022-08-03T18:00:27.163Z,22.25
2022-08-03T18:03:21.785Z,22.62
2022-08-03T18:06:10.956Z,23.41
2022-08-03T18:08:43.808Z,23.62
2022-08-03T18:11:22.829Z,24.67
2022-08-03T18:14:09.918Z,24.75
2022-08-03T18:16:52.479Z,25.33
2022-08-03T18:20:02.792Z,25.78
2022-08-03T18:25:09.364Z,26.09
2022-08-03T18:27:47.560Z,26.47
2022-08-03T18:30:16.955Z,26.99
2022-08-03T18:33:00.491Z,25.60
2022-08-03T18:35:53.499Z,27.25
2022-08-03T18:38:23.813Z,27.57
2022-08-03T18:40:53.062Z,27.92
2022-08-03T18:43:47.395Z,27.20
2022-08-03T18:46:32.812Z,27.98
2022-08-03T18:49:12.195Z,28.40
2022-08-03T18:51:43.082Z,27.27
2022-08-03T18:54:51.748Z,27.94
2022-08-03T18:57:19.697Z,27.69
2022-08-03T19:00:00.861Z,27.28
2022-08-03T19:02:39.346Z,28.58
2022-08-03T19:05:12.640Z,29.53
2022-08-03T19:07:58.040Z,29.55
2022-08-03T19:10:35.306Z,30.31
2022-08-03T19:13:14.006Z,30.56
2022-08-03T19:15:51.463Z,31.00
2022-08-03T19:18:23.573Z,31.16
2022-08-03T19:20:54.759Z,29.83
2022-08-03T19:23:30.783Z,30.71
2022-08-03T19:26:04.524Z,29.91
2022-08-03T19:28:58.314Z,30.19
2022-08-03T19:31:31.005Z,30.58
2022-08-03T19:34:01.259Z,29.77
2022-08-03T19:36:35.509Z,29.88
2022-08-03T19:39:15.055Z,29.65
2022-08-03T19:41:51.404Z,31.50
2022-08-03T19:44:30.247Z,31.78
2022-08-03T19:47:07.142Z,31.93
2022-08-03T19:50:04.584Z,32.14
2022-08-03T19:52:31.461Z,32.10
2022-08-03T19:55:06.969Z,31.98
2022-08-03T19:57:37.977Z,31.03
2022-08-03T20:00:13.978Z,31.15
2022-08-03T20:02:46.149Z,31.20
2022-08-03T20:05:18.190Z,31.67
2022-08-03T20:07:48.683Z,31.54
2022-08-03T20:10:19.181Z,31.91
2022-08-03T20:12:49.450Z,32.07
2022-08-03T20:15:30.925Z,32.47
2022-08-03T20:18:02.527Z,32.79
2022-08-03T20:20:33.836Z,32.77
2022-08-03T20:23:11.513Z,32.17
2022-08-03T20:25:57.024Z,32.42
2022-08-03T20:28:32.816Z,32.30
2022-08-03T20:31:05.534Z,31.98
2022-08-03T20:33:46.395Z,32.52
2022-08-03T20:36:18.657Z,32.41
2022-08-03T20:38:49.049Z,32.87
2022-08-03T20:41:20.020Z,32.99
2022-08-03T20:43:51.072Z,31.60
2022-08-03T20:46:31.293Z,32.17
2022-08-03T20:49:06.988Z,32.01
2022-08-03T20:51:49.114Z,32.12
2022-08-03T20:54:28.756Z,31.88
2022-08-03T20:57:00.230Z,28.92
2022-08-03T20:59:36.928Z,29.76
2022-08-03T21:02:19.736Z,33.31
2022-08-03T21:05:08.431Z,33.28
2022-08-03T21:07:45.560Z,33.90
2022-08-03T21:10:16.680Z,34.20
2022-08-03T21:12:52.181Z,34.19
2022-08-03T21:16:04.760Z,34.62
2022-08-03T21:18:15.243Z,34.21
2022-08-03T21:20:50.310Z,34.61
2022-08-03T21:23:35.167Z,34.94
2022-08-03T21:26:12.032Z,34.92
2022-08-03T21:28:41.481Z,34.94
2022-08-03T21:31:11.182Z,35.16
2022-08-03T21:33:39.884Z,35.12
2022-08-03T21:36:14.440Z,35.08
2022-08-03T21:38:55.806Z,35.62
2022-08-03T21:41:26.009Z,35.81
2022-08-03T21:43:54.307Z,35.83
2022-08-03T21:46:23.511Z,35.88
2022-08-03T21:50:07.443Z,35.65
2022-08-03T21:51:59.106Z,35.26
2022-08-03T21:54:35.714Z,35.54
2022-08-03T21:57:06.014Z,35.23
2022-08-03T21:59:40.739Z,35.39
2022-08-03T22:02:12.242Z,35.66
2022-08-03T22:04:56.037Z,35.64
2022-08-03T22:07:31.963Z,34.91
2022-08-03T22:10:04.956Z,35.32
2022-08-03T22:12:34.354Z,35.77
2022-08-03T22:15:04.854Z,36.06
2022-08-03T22:17:55.384Z,36.01
2022-08-03T22:20:25.016Z,34.64
2022-08-03T22:23:04.554Z,33.86
2022-08-03T22:25:36.596Z,35.06
2022-08-03T22:28:10.487Z,36.12
2022-08-03T22:30:40.153Z,36.18
2022-08-03T22:33:13.026Z,36.34
2022-08-03T22:35:48.271Z,36.46
2022-08-03T22:38:19.668Z,36.15
2022-08-03T22:40:51.453Z,35.75
2022-08-03T22:43:25.166Z,36.45
2022-08-03T22:46:09.831Z,36.51
2022-08-03T22:48:41.926Z,36.23
2022-08-03T22:51:11.944Z,36.85
2022-08-03T22:53:45.485Z,36.09
2022-08-03T22:56:15.346Z,36.25
2022-08-03T22:58:44.244Z,36.68
2022-08-03T23:01:16.680Z,35.28
2022-08-03T23:03:59.853Z,36.94
2022-08-03T23:06:43.354Z,36.50
2022-08-03T23:09:16.520Z,36.48
2022-08-03T23:11:46.213Z,36.46
2022-08-03T23:14:17.456Z,37.40
2022-08-03T23:16:48.695Z,37.52
2022-08-03T23:19:25.584Z,37.91
2022-08-03T23:22:02.279Z,38.07
2022-08-03T23:24:37.094Z,37.79
2022-08-03T23:27:06.248Z,37.28
2022-08-03T23:29:37.742Z,37.92
2022-08-03T23:32:07.368Z,37.31
2022-08-03T23:34:57.653Z,36.83
2022-08-03T23:38:04.402Z,36.54
2022-08-03T23:40:31.399Z,37.21
2022-08-03T23:43:03.798Z,37.38
2022-08-03T23:45:36.385Z,37.43
2022-08-03T23:48:06.428Z,37.70
2022-08-03T23:50:46.045Z,37.71
2022-08-03T23:53:21.973Z,36.09
2022-08-03T23:56:12.724Z,37.23
2022-08-03T23:58:56.046Z,37.54
